sensor_id;sensor_type;location;lat;lon;timestamp;P1;durP1;ratioP1;P2;durP2;ratioP2
73321;SDS011;61549;37.044;22.128;2022-10-23T00:01:33;3.92;;;3.50;;
73321;SDS011;61549;37.044;22.128;2022-10-23T00:04:05;5.38;;;3.33;;
73321;SDS011;61549;37.044;22.128;2022-10-23T00:06:43;4.40;;;3.40;;
73321;SDS011;61549;37.044;22.128;2022-10-23T00:09:10;5.03;;;3.70;;
73321;SDS011;61549;37.044;22.128;2022-10-23T00:11:40;4.75;;;3.53;;
73321;SDS011;61549;37.044;22.128;2022-10-23T00:14:06;5.75;;;3.70;;
73321;SDS011;61549;37.044;22.128;2022-10-23T00:16:33;4.50;;;3.80;;
73321;SDS011;61549;37.044;22.128;2022-10-23T00:18:59;5.32;;;3.95;;
73321;SDS011;61549;37.044;22.128;2022-10-23T00:21:26;4.45;;;3.40;;
73321;SDS011;61549;37.044;22.128;2022-10-23T00:23:52;4.25;;;3.75;;
73321;SDS011;61549;37.044;22.128;2022-10-23T00:26:18;4.70;;;4.00;;
73321;SDS011;61549;37.044;22.128;2022-10-23T00:28:45;6.38;;;3.95;;
73321;SDS011;61549;37.044;22.128;2022-10-23T00:31:13;4.30;;;3.90;;
73321;SDS011;61549;37.044;22.128;2022-10-23T00:33:40;4.88;;;3.85;;
73321;SDS011;61549;37.044;22.128;2022-10-23T00:36:08;5.47;;;3.92;;
73321;SDS011;61549;37.044;22.128;2022-10-23T00:38:36;5.53;;;4.05;;
73321;SDS011;61549;37.044;22.128;2022-10-23T00:41:07;6.07;;;4.35;;
73321;SDS011;61549;37.044;22.128;2022-10-23T00:43:34;7.15;;;4.38;;
73321;SDS011;61549;37.044;22.128;2022-10-23T00:46:23;4.85;;;4.35;;
73321;SDS011;61549;37.044;22.128;2022-10-23T00:48:49;5.28;;;4.30;;
73321;SDS011;61549;37.044;22.128;2022-10-23T00:51:15;5.32;;;4.20;;
73321;SDS011;61549;37.044;22.128;2022-10-23T00:53:42;5.35;;;4.40;;
73321;SDS011;61549;37.044;22.128;2022-10-23T00:56:08;6.05;;;4.82;;
73321;SDS011;61549;37.044;22.128;2022-10-23T00:58:35;5.43;;;4.40;;
73321;SDS011;61549;37.044;22.128;2022-10-23T01:01:01;6.60;;;4.63;;
73321;SDS011;61549;37.044;22.128;2022-10-23T01:03:27;5.53;;;4.43;;
73321;SDS011;61549;37.044;22.128;2022-10-23T01:06:12;6.65;;;4.68;;
73321;SDS011;61549;37.044;22.128;2022-10-23T01:08:50;6.30;;;4.60;;
73321;SDS011;61549;37.044;22.128;2022-10-23T01:11:56;5.20;;;4.50;;
73321;SDS011;61549;37.044;22.128;2022-10-23T01:20:18;4.82;;;4.22;;
73321;SDS011;61549;37.044;22.128;2022-10-23T01:29:01;4.25;;;3.75;;
73321;SDS011;61549;37.044;22.128;2022-10-23T01:31:53;4.95;;;3.75;;
73321;SDS011;61549;37.044;22.128;2022-10-23T01:37:43;4.60;;;4.07;;
73321;SDS011;61549;37.044;22.128;2022-10-23T01:40:26;4.93;;;4.15;;
73321;SDS011;61549;37.044;22.128;2022-10-23T01:42:58;5.55;;;4.25;;
73321;SDS011;61549;37.044;22.128;2022-10-23T01:45:37;6.45;;;3.88;;
73321;SDS011;61549;37.044;22.128;2022-10-23T01:48:08;6.22;;;3.85;;
73321;SDS011;61549;37.044;22.128;2022-10-23T01:50:39;4.85;;;3.60;;
73321;SDS011;61549;37.044;22.128;2022-10-23T01:53:06;4.55;;;3.92;;
73321;SDS011;61549;37.044;22.128;2022-10-23T01:55:33;5.40;;;3.80;;
73321;SDS011;61549;37.044;22.128;2022-10-23T01:58:00;6.88;;;4.20;;
73321;SDS011;61549;37.044;22.128;2022-10-23T02:00:28;5.05;;;3.85;;
73321;SDS011;61549;37.044;22.128;2022-10-23T02:02:55;5.72;;;3.85;;
73321;SDS011;61549;37.044;22.128;2022-10-23T02:05:24;4.45;;;4.00;;
73321;SDS011;61549;37.044;22.128;2022-10-23T02:07:52;4.70;;;4.00;;
73321;SDS011;61549;37.044;22.128;2022-10-23T02:10:19;4.88;;;3.65;;
73321;SDS011;61549;37.044;22.128;2022-10-23T02:13:04;4.78;;;3.95;;
73321;SDS011;61549;37.044;22.128;2022-10-23T02:15:37;5.63;;;3.50;;
73321;SDS011;61549;37.044;22.128;2022-10-23T02:21:27;4.35;;;3.92;;
73321;SDS011;61549;37.044;22.128;2022-10-23T02:24:12;6.70;;;4.23;;
73321;SDS011;61549;37.044;22.128;2022-10-23T02:27:00;4.85;;;3.80;;
73321;SDS011;61549;37.044;22.128;2022-10-23T02:29:38;4.95;;;3.92;;
73321;SDS011;61549;37.044;22.128;2022-10-23T02:32:07;4.75;;;3.78;;
73321;SDS011;61549;37.044;22.128;2022-10-23T02:34:34;6.03;;;4.03;;
73321;SDS011;61549;37.044;22.128;2022-10-23T02:37:01;4.00;;;3.50;;
73321;SDS011;61549;37.044;22.128;2022-10-23T02:39:27;4.53;;;3.60;;
73321;SDS011;61549;37.044;22.128;2022-10-23T02:41:59;5.25;;;3.85;;
73321;SDS011;61549;37.044;22.128;2022-10-23T02:53:15;4.50;;;3.80;;
73321;SDS011;61549;37.044;22.128;2022-10-23T03:01:28;4.50;;;3.80;;
73321;SDS011;61549;37.044;22.128;2022-10-23T03:04:08;5.00;;;3.67;;
73321;SDS011;61549;37.044;22.128;2022-10-23T03:06:35;4.40;;;3.20;;
73321;SDS011;61549;37.044;22.128;2022-10-23T03:09:05;4.47;;;3.58;;
73321;SDS011;61549;37.044;22.128;2022-10-23T03:11:32;4.78;;;3.50;;
73321;SDS011;61549;37.044;22.128;2022-10-23T03:13:58;4.28;;;3.40;;
73321;SDS011;61549;37.044;22.128;2022-10-23T03:16:24;5.20;;;3.53;;
73321;SDS011;61549;37.044;22.128;2022-10-23T03:18:50;4.32;;;3.80;;
73321;SDS011;61549;37.044;22.128;2022-10-23T03:21:16;4.57;;;3.40;;
73321;SDS011;61549;37.044;22.128;2022-10-23T03:23:42;4.30;;;3.55;;
73321;SDS011;61549;37.044;22.128;2022-10-23T03:26:08;4.32;;;3.78;;
73321;SDS011;61549;37.044;22.128;2022-10-23T03:28:34;6.07;;;3.58;;
73321;SDS011;61549;37.044;22.128;2022-10-23T03:31:02;4.72;;;3.63;;
73321;SDS011;61549;37.044;22.128;2022-10-23T03:33:29;5.07;;;3.47;;
73321;SDS011;61549;37.044;22.128;2022-10-23T03:35:56;4.38;;;3.50;;
73321;SDS011;61549;37.044;22.128;2022-10-23T03:38:22;5.75;;;3.50;;
73321;SDS011;61549;37.044;22.128;2022-10-23T03:40:48;4.10;;;3.70;;
73321;SDS011;61549;37.044;22.128;2022-10-23T03:43:15;3.97;;;3.58;;
73321;SDS011;61549;37.044;22.128;2022-10-23T03:45:41;4.32;;;3.92;;
73321;SDS011;61549;37.044;22.128;2022-10-23T03:48:07;4.75;;;4.05;;
73321;SDS011;61549;37.044;22.128;2022-10-23T03:50:34;5.90;;;3.95;;
73321;SDS011;61549;37.044;22.128;2022-10-23T03:53:00;4.78;;;4.20;;
73321;SDS011;61549;37.044;22.128;2022-10-23T03:55:26;4.57;;;3.88;;
73321;SDS011;61549;37.044;22.128;2022-10-23T03:57:53;5.65;;;3.80;;
73321;SDS011;61549;37.044;22.128;2022-10-23T04:00:19;4.50;;;3.72;;
73321;SDS011;61549;37.044;22.128;2022-10-23T04:02:46;4.32;;;3.92;;
73321;SDS011;61549;37.044;22.128;2022-10-23T04:05:12;6.35;;;3.60;;
73321;SDS011;61549;37.044;22.128;2022-10-23T04:07:38;4.90;;;4.03;;
73321;SDS011;61549;37.044;22.128;2022-10-23T04:10:04;4.57;;;3.67;;
73321;SDS011;61549;37.044;22.128;2022-10-23T04:12:31;4.00;;;3.60;;
73321;SDS011;61549;37.044;22.128;2022-10-23T04:15:00;3.70;;;3.38;;
73321;SDS011;61549;37.044;22.128;2022-10-23T04:17:26;6.65;;;3.70;;
73321;SDS011;61549;37.044;22.128;2022-10-23T04:19:59;4.70;;;3.75;;
73321;SDS011;61549;37.044;22.128;2022-10-23T04:22:25;3.92;;;3.38;;
73321;SDS011;61549;37.044;22.128;2022-10-23T04:24:50;6.22;;;3.53;;
73321;SDS011;61549;37.044;22.128;2022-10-23T04:27:16;4.63;;;3.63;;
73321;SDS011;61549;37.044;22.128;2022-10-23T04:29:42;4.40;;;3.55;;
73321;SDS011;61549;37.044;22.128;2022-10-23T04:32:08;4.35;;;3.55;;
73321;SDS011;61549;37.044;22.128;2022-10-23T04:34:34;4.13;;;3.35;;
73321;SDS011;61549;37.044;22.128;2022-10-23T04:37:00;4.50;;;3.50;;
73321;SDS011;61549;37.044;22.128;2022-10-23T04:39:26;4.00;;;3.40;;
73321;SDS011;61549;37.044;22.128;2022-10-23T04:44:20;4.20;;;3.25;;
73321;SDS011;61549;37.044;22.128;2022-10-23T04:46:46;5.10;;;3.55;;
73321;SDS011;61549;37.044;22.128;2022-10-23T04:49:12;4.20;;;3.67;;
73321;SDS011;61549;37.044;22.128;2022-10-23T04:51:38;5.43;;;3.45;;
73321;SDS011;61549;37.044;22.128;2022-10-23T04:54:04;4.22;;;3.78;;
73321;SDS011;61549;37.044;22.128;2022-10-23T04:56:30;5.40;;;3.72;;
73321;SDS011;61549;37.044;22.128;2022-10-23T04:58:56;3.85;;;3.47;;
73321;SDS011;61549;37.044;22.128;2022-10-23T05:01:22;6.28;;;3.90;;
73321;SDS011;61549;37.044;22.128;2022-10-23T05:03:48;6.22;;;3.60;;
73321;SDS011;61549;37.044;22.128;2022-10-23T05:06:14;4.25;;;3.58;;
73321;SDS011;61549;37.044;22.128;2022-10-23T05:08:41;4.65;;;3.08;;
73321;SDS011;61549;37.044;22.128;2022-10-23T05:11:08;4.05;;;3.30;;
73321;SDS011;61549;37.044;22.128;2022-10-23T05:13:34;5.47;;;3.63;;
73321;SDS011;61549;37.044;22.128;2022-10-23T05:16:00;4.10;;;3.53;;
73321;SDS011;61549;37.044;22.128;2022-10-23T05:18:27;5.32;;;3.92;;
73321;SDS011;61549;37.044;22.128;2022-10-23T05:20:55;4.90;;;3.70;;
73321;SDS011;61549;37.044;22.128;2022-10-23T05:23:37;5.50;;;4.00;;
73321;SDS011;61549;37.044;22.128;2022-10-23T05:26:08;5.35;;;3.50;;
73321;SDS011;61549;37.044;22.128;2022-10-23T05:28:34;5.15;;;3.78;;
73321;SDS011;61549;37.044;22.128;2022-10-23T05:31:01;4.93;;;4.00;;
73321;SDS011;61549;37.044;22.128;2022-10-23T05:33:31;4.65;;;3.63;;
73321;SDS011;61549;37.044;22.128;2022-10-23T05:35:58;5.03;;;4.15;;
73321;SDS011;61549;37.044;22.128;2022-10-23T05:38:27;7.80;;;4.20;;
73321;SDS011;61549;37.044;22.128;2022-10-23T05:40:55;7.93;;;4.57;;
73321;SDS011;61549;37.044;22.128;2022-10-23T05:43:22;7.13;;;4.70;;
73321;SDS011;61549;37.044;22.128;2022-10-23T05:45:50;6.38;;;4.63;;
73321;SDS011;61549;37.044;22.128;2022-10-23T05:50:44;6.00;;;4.50;;
73321;SDS011;61549;37.044;22.128;2022-10-23T05:53:10;7.10;;;4.90;;
73321;SDS011;61549;37.044;22.128;2022-10-23T05:55:36;7.03;;;4.32;;
73321;SDS011;61549;37.044;22.128;2022-10-23T05:58:02;7.40;;;4.60;;
73321;SDS011;61549;37.044;22.128;2022-10-23T06:00:29;7.28;;;5.03;;
73321;SDS011;61549;37.044;22.128;2022-10-23T06:02:58;8.13;;;4.82;;
73321;SDS011;61549;37.044;22.128;2022-10-23T06:05:24;5.90;;;4.88;;
73321;SDS011;61549;37.044;22.128;2022-10-23T06:07:59;7.03;;;5.32;;
73321;SDS011;61549;37.044;22.128;2022-10-23T06:10:26;8.27;;;4.80;;
73321;SDS011;61549;37.044;22.128;2022-10-23T06:12:51;5.75;;;5.15;;
73321;SDS011;61549;37.044;22.128;2022-10-23T06:15:17;6.03;;;4.85;;
73321;SDS011;61549;37.044;22.128;2022-10-23T06:17:43;9.43;;;5.35;;
73321;SDS011;61549;37.044;22.128;2022-10-23T06:20:09;6.55;;;5.10;;
73321;SDS011;61549;37.044;22.128;2022-10-23T06:22:35;6.70;;;5.15;;
73321;SDS011;61549;37.044;22.128;2022-10-23T06:25:01;6.57;;;5.03;;
73321;SDS011;61549;37.044;22.128;2022-10-23T06:27:28;6.50;;;5.80;;
73321;SDS011;61549;37.044;22.128;2022-10-23T06:29:55;6.97;;;6.25;;
73321;SDS011;61549;37.044;22.128;2022-10-23T06:32:21;6.38;;;5.70;;
73321;SDS011;61549;37.044;22.128;2022-10-23T06:34:53;9.30;;;7.95;;
73321;SDS011;61549;37.044;22.128;2022-10-23T06:37:19;9.45;;;8.10;;
73321;SDS011;61549;37.044;22.128;2022-10-23T06:39:45;5.82;;;5.20;;
73321;SDS011;61549;37.044;22.128;2022-10-23T06:42:11;7.53;;;5.70;;
73321;SDS011;61549;37.044;22.128;2022-10-23T06:44:37;6.25;;;4.93;;
73321;SDS011;61549;37.044;22.128;2022-10-23T06:47:03;5.07;;;4.57;;
73321;SDS011;61549;37.044;22.128;2022-10-23T06:49:29;6.90;;;5.00;;
73321;SDS011;61549;37.044;22.128;2022-10-23T06:51:54;7.25;;;5.18;;
73321;SDS011;61549;37.044;22.128;2022-10-23T06:54:20;5.75;;;4.60;;
73321;SDS011;61549;37.044;22.128;2022-10-23T06:56:46;5.00;;;4.50;;
73321;SDS011;61549;37.044;22.128;2022-10-23T06:59:12;5.28;;;4.50;;
73321;SDS011;61549;37.044;22.128;2022-10-23T07:01:39;6.68;;;5.13;;
73321;SDS011;61549;37.044;22.128;2022-10-23T07:04:05;7.97;;;7.18;;
73321;SDS011;61549;37.044;22.128;2022-10-23T07:06:31;10.13;;;7.90;;
73321;SDS011;61549;37.044;22.128;2022-10-23T07:08:57;8.93;;;6.93;;
73321;SDS011;61549;37.044;22.128;2022-10-23T07:11:23;6.38;;;5.43;;
73321;SDS011;61549;37.044;22.128;2022-10-23T07:13:52;6.18;;;4.63;;
73321;SDS011;61549;37.044;22.128;2022-10-23T07:16:19;5.88;;;4.63;;
73321;SDS011;61549;37.044;22.128;2022-10-23T07:18:46;5.43;;;4.88;;
73321;SDS011;61549;37.044;22.128;2022-10-23T07:21:13;6.20;;;4.95;;
73321;SDS011;61549;37.044;22.128;2022-10-23T07:23:39;5.63;;;4.95;;
73321;SDS011;61549;37.044;22.128;2022-10-23T07:26:06;5.13;;;4.63;;
73321;SDS011;61549;37.044;22.128;2022-10-23T07:28:33;6.00;;;4.97;;
73321;SDS011;61549;37.044;22.128;2022-10-23T07:30:59;7.00;;;5.88;;
73321;SDS011;61549;37.044;22.128;2022-10-23T07:33:26;8.65;;;7.22;;
73321;SDS011;61549;37.044;22.128;2022-10-23T07:35:52;7.75;;;6.95;;
73321;SDS011;61549;37.044;22.128;2022-10-23T07:38:17;6.78;;;5.35;;
73321;SDS011;61549;37.044;22.128;2022-10-23T07:40:43;10.35;;;8.70;;
73321;SDS011;61549;37.044;22.128;2022-10-23T07:43:09;9.98;;;8.75;;
73321;SDS011;61549;37.044;22.128;2022-10-23T07:45:35;6.10;;;5.50;;
73321;SDS011;61549;37.044;22.128;2022-10-23T07:48:01;6.72;;;5.05;;
73321;SDS011;61549;37.044;22.128;2022-10-23T07:50:28;6.00;;;5.40;;
73321;SDS011;61549;37.044;22.128;2022-10-23T07:52:54;6.10;;;5.35;;
73321;SDS011;61549;37.044;22.128;2022-10-23T07:55:22;7.80;;;5.68;;
73321;SDS011;61549;37.044;22.128;2022-10-23T07:57:48;7.28;;;5.82;;
73321;SDS011;61549;37.044;22.128;2022-10-23T08:00:14;8.00;;;5.97;;
73321;SDS011;61549;37.044;22.128;2022-10-23T08:02:40;6.03;;;5.28;;
73321;SDS011;61549;37.044;22.128;2022-10-23T08:05:06;7.18;;;6.07;;
73321;SDS011;61549;37.044;22.128;2022-10-23T08:07:32;9.55;;;6.60;;
73321;SDS011;61549;37.044;22.128;2022-10-23T08:09:59;6.78;;;5.97;;
73321;SDS011;61549;37.044;22.128;2022-10-23T08:12:26;6.78;;;5.05;;
73321;SDS011;61549;37.044;22.128;2022-10-23T08:14:51;5.60;;;4.60;;
73321;SDS011;61549;37.044;22.128;2022-10-23T08:17:17;7.03;;;6.20;;
73321;SDS011;61549;37.044;22.128;2022-10-23T08:19:43;8.32;;;6.90;;
73321;SDS011;61549;37.044;22.128;2022-10-23T08:22:13;7.93;;;7.13;;
73321;SDS011;61549;37.044;22.128;2022-10-23T08:24:40;9.98;;;7.53;;
73321;SDS011;61549;37.044;22.128;2022-10-23T08:27:06;6.55;;;5.85;;
73321;SDS011;61549;37.044;22.128;2022-10-23T08:29:32;6.03;;;5.35;;
73321;SDS011;61549;37.044;22.128;2022-10-23T08:31:58;5.90;;;4.32;;
73321;SDS011;61549;37.044;22.128;2022-10-23T08:34:24;5.90;;;4.78;;
73321;SDS011;61549;37.044;22.128;2022-10-23T08:36:50;7.70;;;5.00;;
73321;SDS011;61549;37.044;22.128;2022-10-23T08:39:16;5.47;;;4.95;;
73321;SDS011;61549;37.044;22.128;2022-10-23T08:41:42;5.60;;;4.63;;
73321;SDS011;61549;37.044;22.128;2022-10-23T08:44:21;7.60;;;5.18;;
73321;SDS011;61549;37.044;22.128;2022-10-23T08:52:01;6.38;;;5.70;;
73321;SDS011;61549;37.044;22.128;2022-10-23T08:54:35;10.55;;;8.50;;
73321;SDS011;61549;37.044;22.128;2022-10-23T08:57:13;15.38;;;11.52;;
73321;SDS011;61549;37.044;22.128;2022-10-23T09:00:15;25.05;;;15.75;;
73321;SDS011;61549;37.044;22.128;2022-10-23T09:02:44;15.07;;;9.48;;
73321;SDS011;61549;37.044;22.128;2022-10-23T09:05:32;12.88;;;8.70;;
73321;SDS011;61549;37.044;22.128;2022-10-23T09:08:33;5.60;;;5.00;;
73321;SDS011;61549;37.044;22.128;2022-10-23T09:11:26;6.03;;;4.43;;
73321;SDS011;61549;37.044;22.128;2022-10-23T09:20:00;6.00;;;4.75;;
73321;SDS011;61549;37.044;22.128;2022-10-23T09:22:44;5.40;;;4.90;;
73321;SDS011;61549;37.044;22.128;2022-10-23T09:25:33;5.45;;;4.90;;
73321;SDS011;61549;37.044;22.128;2022-10-23T09:28:01;5.65;;;5.07;;
73321;SDS011;61549;37.044;22.128;2022-10-23T09:30:35;5.93;;;5.30;;
73321;SDS011;61549;37.044;22.128;2022-10-23T09:33:18;6.72;;;5.85;;
73321;SDS011;61549;37.044;22.128;2022-10-23T09:35:51;6.03;;;5.30;;
73321;SDS011;61549;37.044;22.128;2022-10-23T09:43:40;5.60;;;5.00;;
73321;SDS011;61549;37.044;22.128;2022-10-23T09:46:07;5.20;;;4.70;;
73321;SDS011;61549;37.044;22.128;2022-10-23T09:48:34;6.72;;;4.95;;
73321;SDS011;61549;37.044;22.128;2022-10-23T09:51:03;5.20;;;4.70;;
73321;SDS011;61549;37.044;22.128;2022-10-23T09:59:15;5.88;;;5.28;;
73321;SDS011;61549;37.044;22.128;2022-10-23T10:01:47;5.72;;;5.10;;
73321;SDS011;61549;37.044;22.128;2022-10-23T10:04:16;5.50;;;4.78;;
73321;SDS011;61549;37.044;22.128;2022-10-23T10:06:42;5.90;;;5.30;;
73321;SDS011;61549;37.044;22.128;2022-10-23T10:09:12;6.20;;;5.25;;
73321;SDS011;61549;37.044;22.128;2022-10-23T10:11:43;5.55;;;5.00;;
73321;SDS011;61549;37.044;22.128;2022-10-23T10:22:52;5.43;;;4.93;;
73321;SDS011;61549;37.044;22.128;2022-10-23T10:25:34;5.88;;;4.72;;
73321;SDS011;61549;37.044;22.128;2022-10-23T10:33:34;6.15;;;5.18;;
73321;SDS011;61549;37.044;22.128;2022-10-23T10:39:10;5.55;;;5.05;;
73321;SDS011;61549;37.044;22.128;2022-10-23T10:44:26;5.45;;;4.90;;
73321;SDS011;61549;37.044;22.128;2022-10-23T10:49:50;7.28;;;5.30;;
73321;SDS011;61549;37.044;22.128;2022-10-23T10:57:40;7.05;;;4.57;;
73321;SDS011;61549;37.044;22.128;2022-10-23T11:00:13;5.40;;;4.72;;
73321;SDS011;61549;37.044;22.128;2022-10-23T11:10:45;5.80;;;4.80;;
73321;SDS011;61549;37.044;22.128;2022-10-23T11:13:34;5.00;;;4.50;;
73321;SDS011;61549;37.044;22.128;2022-10-23T11:18:35;4.85;;;4.25;;
73321;SDS011;61549;37.044;22.128;2022-10-23T11:29:12;4.95;;;4.45;;
73321;SDS011;61549;37.044;22.128;2022-10-23T11:37:21;6.22;;;4.13;;
73321;SDS011;61549;37.044;22.128;2022-10-23T11:40:22;7.43;;;4.47;;
73321;SDS011;61549;37.044;22.128;2022-10-23T11:42:47;4.82;;;4.20;;
73321;SDS011;61549;37.044;22.128;2022-10-23T11:45:26;4.40;;;4.00;;
73321;SDS011;61549;37.044;22.128;2022-10-23T11:50:37;5.80;;;4.28;;
73321;SDS011;61549;37.044;22.128;2022-10-23T11:53:26;7.05;;;4.43;;
73321;SDS011;61549;37.044;22.128;2022-10-23T11:56:23;4.90;;;4.40;;
73321;SDS011;61549;37.044;22.128;2022-10-23T11:58:51;5.20;;;4.70;;
73321;SDS011;61549;37.044;22.128;2022-10-23T12:04:15;4.45;;;4.05;;
73321;SDS011;61549;37.044;22.128;2022-10-23T12:07:00;4.80;;;4.32;;
73321;SDS011;61549;37.044;22.128;2022-10-23T12:14:37;8.95;;;4.93;;
73321;SDS011;61549;37.044;22.128;2022-10-23T12:19:51;6.88;;;4.53;;
73321;SDS011;61549;37.044;22.128;2022-10-23T12:22:19;5.05;;;4.53;;
73321;SDS011;61549;37.044;22.128;2022-10-23T12:27:38;5.85;;;5.18;;
73321;SDS011;61549;37.044;22.128;2022-10-23T12:33:25;7.00;;;5.50;;
73321;SDS011;61549;37.044;22.128;2022-10-23T12:38:20;5.30;;;4.80;;
73321;SDS011;61549;37.044;22.128;2022-10-23T12:41:11;8.77;;;7.10;;
73321;SDS011;61549;37.044;22.128;2022-10-23T12:43:37;7.35;;;6.57;;
73321;SDS011;61549;37.044;22.128;2022-10-23T12:48:35;5.55;;;5.00;;
73321;SDS011;61549;37.044;22.128;2022-10-23T12:51:14;6.93;;;5.90;;
73321;SDS011;61549;37.044;22.128;2022-10-23T12:53:47;8.18;;;6.20;;
73321;SDS011;61549;37.044;22.128;2022-10-23T12:56:13;8.82;;;7.43;;
73321;SDS011;61549;37.044;22.128;2022-10-23T12:58:44;6.70;;;5.30;;
73321;SDS011;61549;37.044;22.128;2022-10-23T13:01:27;6.90;;;5.43;;
73321;SDS011;61549;37.044;22.128;2022-10-23T13:04:10;7.30;;;5.47;;
73321;SDS011;61549;37.044;22.128;2022-10-23T13:06:42;5.40;;;4.80;;
73321;SDS011;61549;37.044;22.128;2022-10-23T13:09:14;5.25;;;4.75;;
73321;SDS011;61549;37.044;22.128;2022-10-23T13:11:55;5.45;;;4.95;;
73321;SDS011;61549;37.044;22.128;2022-10-23T13:14:27;6.53;;;4.90;;
73321;SDS011;61549;37.044;22.128;2022-10-23T13:17:04;5.50;;;5.00;;
73321;SDS011;61549;37.044;22.128;2022-10-23T13:19:31;6.38;;;5.15;;
73321;SDS011;61549;37.044;22.128;2022-10-23T13:21:58;5.32;;;4.82;;
73321;SDS011;61549;37.044;22.128;2022-10-23T13:24:26;5.82;;;5.05;;
73321;SDS011;61549;37.044;22.128;2022-10-23T13:26:53;6.05;;;5.00;;
73321;SDS011;61549;37.044;22.128;2022-10-23T13:32:08;7.18;;;5.03;;
73321;SDS011;61549;37.044;22.128;2022-10-23T13:34:51;6.00;;;5.28;;
73321;SDS011;61549;37.044;22.128;2022-10-23T13:37:23;6.57;;;4.90;;
73321;SDS011;61549;37.044;22.128;2022-10-23T13:40:05;5.45;;;4.95;;
73321;SDS011;61549;37.044;22.128;2022-10-23T13:45:17;6.05;;;5.05;;
73321;SDS011;61549;37.044;22.128;2022-10-23T13:47:46;5.97;;;5.38;;
73321;SDS011;61549;37.044;22.128;2022-10-23T13:50:12;5.80;;;5.30;;
73321;SDS011;61549;37.044;22.128;2022-10-23T13:52:38;5.32;;;4.90;;
73321;SDS011;61549;37.044;22.128;2022-10-23T13:57:50;6.18;;;5.28;;
73321;SDS011;61549;37.044;22.128;2022-10-23T14:00:17;7.57;;;5.53;;
73321;SDS011;61549;37.044;22.128;2022-10-23T14:02:43;6.10;;;5.50;;
73321;SDS011;61549;37.044;22.128;2022-10-23T14:05:09;6.05;;;5.45;;
73321;SDS011;61549;37.044;22.128;2022-10-23T14:07:35;7.38;;;4.97;;
73321;SDS011;61549;37.044;22.128;2022-10-23T14:10:02;6.93;;;5.43;;
73321;SDS011;61549;37.044;22.128;2022-10-23T14:12:28;6.63;;;5.40;;
73321;SDS011;61549;37.044;22.128;2022-10-23T14:14:54;5.97;;;5.07;;
73321;SDS011;61549;37.044;22.128;2022-10-23T14:17:21;7.38;;;5.30;;
73321;SDS011;61549;37.044;22.128;2022-10-23T14:19:47;5.80;;;5.20;;
73321;SDS011;61549;37.044;22.128;2022-10-23T14:22:14;7.20;;;5.30;;
73321;SDS011;61549;37.044;22.128;2022-10-23T14:24:43;6.70;;;5.25;;
73321;SDS011;61549;37.044;22.128;2022-10-23T14:27:09;6.35;;;5.70;;
73321;SDS011;61549;37.044;22.128;2022-10-23T14:29:36;6.85;;;5.53;;
73321;SDS011;61549;37.044;22.128;2022-10-23T14:32:04;6.20;;;5.00;;
73321;SDS011;61549;37.044;22.128;2022-10-23T14:34:30;6.10;;;5.50;;
73321;SDS011;61549;37.044;22.128;2022-10-23T14:36:55;6.47;;;5.60;;
73321;SDS011;61549;37.044;22.128;2022-10-23T14:39:21;6.15;;;5.38;;
73321;SDS011;61549;37.044;22.128;2022-10-23T14:41:47;9.18;;;5.75;;
73321;SDS011;61549;37.044;22.128;2022-10-23T14:44:13;6.45;;;5.78;;
73321;SDS011;61549;37.044;22.128;2022-10-23T14:46:39;9.32;;;5.43;;
73321;SDS011;61549;37.044;22.128;2022-10-23T14:49:05;6.97;;;5.90;;
73321;SDS011;61549;37.044;22.128;2022-10-23T14:51:31;6.57;;;5.93;;
73321;SDS011;61549;37.044;22.128;2022-10-23T14:53:58;9.05;;;5.80;;
73321;SDS011;61549;37.044;22.128;2022-10-23T14:56:29;6.30;;;5.65;;
73321;SDS011;61549;37.044;22.128;2022-10-23T14:58:58;6.38;;;5.75;;
73321;SDS011;61549;37.044;22.128;2022-10-23T15:01:28;6.78;;;5.55;;
73321;SDS011;61549;37.044;22.128;2022-10-23T15:03:55;6.55;;;5.90;;
73321;SDS011;61549;37.044;22.128;2022-10-23T15:06:22;7.20;;;5.80;;
73321;SDS011;61549;37.044;22.128;2022-10-23T15:08:51;8.90;;;6.40;;
73321;SDS011;61549;37.044;22.128;2022-10-23T15:11:21;7.47;;;6.22;;
73321;SDS011;61549;37.044;22.128;2022-10-23T15:13:48;6.90;;;6.15;;
73321;SDS011;61549;37.044;22.128;2022-10-23T15:16:14;7.78;;;6.72;;
73321;SDS011;61549;37.044;22.128;2022-10-23T15:18:40;8.48;;;6.55;;
73321;SDS011;61549;37.044;22.128;2022-10-23T15:21:07;9.52;;;7.00;;
73321;SDS011;61549;37.044;22.128;2022-10-23T15:23:33;11.05;;;7.55;;
73321;SDS011;61549;37.044;22.128;2022-10-23T15:26:03;7.57;;;6.85;;
73321;SDS011;61549;37.044;22.128;2022-10-23T15:28:30;8.23;;;7.00;;
73321;SDS011;61549;37.044;22.128;2022-10-23T15:30:57;8.80;;;7.50;;
73321;SDS011;61549;37.044;22.128;2022-10-23T15:33:23;10.27;;;7.68;;
73321;SDS011;61549;37.044;22.128;2022-10-23T15:35:50;8.80;;;7.15;;
73321;SDS011;61549;37.044;22.128;2022-10-23T15:38:17;8.20;;;7.40;;
73321;SDS011;61549;37.044;22.128;2022-10-23T15:40:43;8.30;;;7.10;;
73321;SDS011;61549;37.044;22.128;2022-10-23T15:43:12;10.13;;;7.07;;
73321;SDS011;61549;37.044;22.128;2022-10-23T15:45:39;9.65;;;7.88;;
73321;SDS011;61549;37.044;22.128;2022-10-23T15:48:05;10.43;;;7.68;;
73321;SDS011;61549;37.044;22.128;2022-10-23T15:50:31;10.95;;;7.68;;
73321;SDS011;61549;37.044;22.128;2022-10-23T15:52:58;9.93;;;7.30;;
73321;SDS011;61549;37.044;22.128;2022-10-23T15:55:24;9.35;;;7.50;;
73321;SDS011;61549;37.044;22.128;2022-10-23T15:57:50;10.82;;;8.70;;
73321;SDS011;61549;37.044;22.128;2022-10-23T16:00:16;12.23;;;10.82;;
73321;SDS011;61549;37.044;22.128;2022-10-23T16:02:42;11.15;;;9.95;;
73321;SDS011;61549;37.044;22.128;2022-10-23T16:05:08;12.05;;;10.50;;
73321;SDS011;61549;37.044;22.128;2022-10-23T16:07:34;11.45;;;8.85;;
73321;SDS011;61549;37.044;22.128;2022-10-23T16:10:00;9.35;;;8.45;;
73321;SDS011;61549;37.044;22.128;2022-10-23T16:12:26;9.10;;;8.20;;
73321;SDS011;61549;37.044;22.128;2022-10-23T16:14:52;10.43;;;9.07;;
73321;SDS011;61549;37.044;22.128;2022-10-23T16:17:18;9.82;;;8.32;;
73321;SDS011;61549;37.044;22.128;2022-10-23T16:19:44;8.57;;;7.78;;
73321;SDS011;61549;37.044;22.128;2022-10-23T16:22:10;9.75;;;8.63;;
73321;SDS011;61549;37.044;22.128;2022-10-23T16:24:36;9.65;;;8.10;;
73321;SDS011;61549;37.044;22.128;2022-10-23T16:27:02;9.95;;;8.18;;
73321;SDS011;61549;37.044;22.128;2022-10-23T16:29:28;10.82;;;7.82;;
73321;SDS011;61549;37.044;22.128;2022-10-23T16:31:55;10.35;;;8.00;;
73321;SDS011;61549;37.044;22.128;2022-10-23T16:34:23;11.75;;;8.13;;
73321;SDS011;61549;37.044;22.128;2022-10-23T16:36:50;9.02;;;8.18;;
73321;SDS011;61549;37.044;22.128;2022-10-23T16:39:17;8.05;;;7.25;;
73321;SDS011;61549;37.044;22.128;2022-10-23T16:41:44;13.38;;;8.73;;
73321;SDS011;61549;37.044;22.128;2022-10-23T16:44:10;9.13;;;8.13;;
73321;SDS011;61549;37.044;22.128;2022-10-23T16:46:36;9.85;;;8.05;;
73321;SDS011;61549;37.044;22.128;2022-10-23T16:49:03;8.68;;;7.82;;
73321;SDS011;61549;37.044;22.128;2022-10-23T16:51:30;9.70;;;8.57;;
73321;SDS011;61549;37.044;22.128;2022-10-23T16:53:57;9.40;;;8.32;;
73321;SDS011;61549;37.044;22.128;2022-10-23T16:56:24;10.15;;;7.60;;
73321;SDS011;61549;37.044;22.128;2022-10-23T16:58:52;13.30;;;8.43;;
73321;SDS011;61549;37.044;22.128;2022-10-23T17:01:20;10.23;;;8.40;;
73321;SDS011;61549;37.044;22.128;2022-10-23T17:03:49;9.98;;;7.68;;
73321;SDS011;61549;37.044;22.128;2022-10-23T17:06:17;8.55;;;7.45;;
73321;SDS011;61549;37.044;22.128;2022-10-23T17:08:45;8.55;;;7.70;;
73321;SDS011;61549;37.044;22.128;2022-10-23T17:11:15;9.73;;;8.05;;